sensor_id;sensor_type;location;lat;lon;timestamp;P1;durP1;ratioP1;P2;durP2;ratioP2
84989;SDS011;75307;53.836;10.476;2024-03-02T00:01:36;30.45;;;12.95;;
84989;SDS011;75307;53.836;10.476;2024-03-02T00:03:38;29.63;;;13.57;;
84989;SDS011;75307;53.836;10.476;2024-03-02T00:05:41;27.35;;;13.32;;
84989;SDS011;75307;53.836;10.476;2024-03-02T00:09:43;27.42;;;12.43;;
84989;SDS011;75307;53.836;10.476;2024-03-02T00:11:45;32.13;;;13.38;;
84989;SDS011;75307;53.836;10.476;2024-03-02T00:15:48;28.65;;;13.77;;
84989;SDS011;75307;53.836;10.476;2024-03-02T00:17:53;29.60;;;12.90;;
84989;SDS011;75307;53.836;10.476;2024-03-02T00:19:56;31.67;;;11.60;;
84989;SDS011;75307;53.836;10.476;2024-03-02T00:22:00;25.42;;;14.18;;
84989;SDS011;75307;53.836;10.476;2024-03-02T00:24:05;34.63;;;15.23;;
84989;SDS011;75307;53.836;10.476;2024-03-02T00:26:18;29.35;;;13.07;;
84989;SDS011;75307;53.836;10.476;2024-03-02T00:28:21;29.95;;;13.88;;
84989;SDS011;75307;53.836;10.476;2024-03-02T00:30:41;30.95;;;13.10;;
84989;SDS011;75307;53.836;10.476;2024-03-02T00:33:00;31.23;;;12.80;;
84989;SDS011;75307;53.836;10.476;2024-03-02T00:35:00;31.90;;;14.02;;
84989;SDS011;75307;53.836;10.476;2024-03-02T00:37:02;27.05;;;13.55;;
84989;SDS011;75307;53.836;10.476;2024-03-02T00:39:04;35.13;;;14.80;;
84989;SDS011;75307;53.836;10.476;2024-03-02T00:41:08;33.30;;;13.63;;
84989;SDS011;75307;53.836;10.476;2024-03-02T00:43:37;35.58;;;15.65;;
84989;SDS011;75307;53.836;10.476;2024-03-02T00:45:41;33.25;;;15.20;;
84989;SDS011;75307;53.836;10.476;2024-03-02T00:47:43;29.05;;;13.05;;
84989;SDS011;75307;53.836;10.476;2024-03-02T00:49:46;31.85;;;14.60;;
84989;SDS011;75307;53.836;10.476;2024-03-02T00:51:48;28.17;;;14.00;;
84989;SDS011;75307;53.836;10.476;2024-03-02T00:53:51;31.15;;;14.43;;
84989;SDS011;75307;53.836;10.476;2024-03-02T00:55:56;29.20;;;12.65;;
84989;SDS011;75307;53.836;10.476;2024-03-02T00:59:58;29.88;;;13.35;;
84989;SDS011;75307;53.836;10.476;2024-03-02T01:04:00;28.05;;;12.15;;
84989;SDS011;75307;53.836;10.476;2024-03-02T01:06:03;32.25;;;12.60;;
84989;SDS011;75307;53.836;10.476;2024-03-02T01:08:05;29.42;;;12.55;;
84989;SDS011;75307;53.836;10.476;2024-03-02T01:10:07;26.80;;;13.05;;
84989;SDS011;75307;53.836;10.476;2024-03-02T01:12:10;30.75;;;13.65;;
84989;SDS011;75307;53.836;10.476;2024-03-02T01:14:11;31.02;;;13.23;;
84989;SDS011;75307;53.836;10.476;2024-03-02T01:16:13;32.33;;;14.13;;
84989;SDS011;75307;53.836;10.476;2024-03-02T01:18:15;31.95;;;14.35;;
84989;SDS011;75307;53.836;10.476;2024-03-02T01:20:17;33.30;;;15.68;;
84989;SDS011;75307;53.836;10.476;2024-03-02T01:22:20;36.22;;;15.10;;
84989;SDS011;75307;53.836;10.476;2024-03-02T01:24:25;31.98;;;14.30;;
84989;SDS011;75307;53.836;10.476;2024-03-02T01:26:27;30.02;;;13.23;;
84989;SDS011;75307;53.836;10.476;2024-03-02T01:28:29;35.08;;;13.75;;
84989;SDS011;75307;53.836;10.476;2024-03-02T01:30:30;33.60;;;14.93;;
84989;SDS011;75307;53.836;10.476;2024-03-02T01:34:33;30.52;;;13.80;;
84989;SDS011;75307;53.836;10.476;2024-03-02T01:36:34;33.35;;;14.15;;
84989;SDS011;75307;53.836;10.476;2024-03-02T01:38:37;32.33;;;15.13;;
84989;SDS011;75307;53.836;10.476;2024-03-02T01:40:39;33.35;;;15.10;;
84989;SDS011;75307;53.836;10.476;2024-03-02T01:42:41;32.00;;;15.15;;
84989;SDS011;75307;53.836;10.476;2024-03-02T01:44:44;34.08;;;14.35;;
84989;SDS011;75307;53.836;10.476;2024-03-02T01:46:46;32.28;;;14.77;;
84989;SDS011;75307;53.836;10.476;2024-03-02T01:48:47;33.03;;;14.38;;
84989;SDS011;75307;53.836;10.476;2024-03-02T01:50:49;33.97;;;14.55;;
84989;SDS011;75307;53.836;10.476;2024-03-02T01:52:51;30.90;;;15.45;;
84989;SDS011;75307;53.836;10.476;2024-03-02T01:54:55;30.75;;;14.88;;
84989;SDS011;75307;53.836;10.476;2024-03-02T01:56:56;34.35;;;15.05;;
84989;SDS011;75307;53.836;10.476;2024-03-02T01:58:58;35.42;;;16.23;;
84989;SDS011;75307;53.836;10.476;2024-03-02T02:00:59;31.35;;;13.75;;
84989;SDS011;75307;53.836;10.476;2024-03-02T02:03:01;35.17;;;15.73;;
84989;SDS011;75307;53.836;10.476;2024-03-02T02:05:03;34.83;;;15.23;;
84989;SDS011;75307;53.836;10.476;2024-03-02T02:07:05;32.28;;;15.05;;
84989;SDS011;75307;53.836;10.476;2024-03-02T02:09:06;34.50;;;14.93;;
84989;SDS011;75307;53.836;10.476;2024-03-02T02:11:10;29.27;;;13.43;;
84989;SDS011;75307;53.836;10.476;2024-03-02T02:13:13;34.63;;;14.07;;
84989;SDS011;75307;53.836;10.476;2024-03-02T02:15:27;33.28;;;13.82;;
84989;SDS011;75307;53.836;10.476;2024-03-02T02:17:29;33.20;;;14.35;;
84989;SDS011;75307;53.836;10.476;2024-03-02T02:21:33;37.28;;;13.43;;
84989;SDS011;75307;53.836;10.476;2024-03-02T02:23:35;32.10;;;13.30;;
84989;SDS011;75307;53.836;10.476;2024-03-02T02:25:37;27.73;;;13.05;;
84989;SDS011;75307;53.836;10.476;2024-03-02T02:27:39;33.38;;;15.23;;
84989;SDS011;75307;53.836;10.476;2024-03-02T02:29:39;34.55;;;14.43;;
84989;SDS011;75307;53.836;10.476;2024-03-02T02:31:41;35.17;;;15.73;;
84989;SDS011;75307;53.836;10.476;2024-03-02T02:33:43;32.60;;;13.55;;
84989;SDS011;75307;53.836;10.476;2024-03-02T02:37:47;33.20;;;14.02;;
84989;SDS011;75307;53.836;10.476;2024-03-02T02:39:50;33.40;;;14.93;;
84989;SDS011;75307;53.836;10.476;2024-03-02T02:41:53;35.88;;;14.55;;
84989;SDS011;75307;53.836;10.476;2024-03-02T02:43:53;29.38;;;13.45;;
84989;SDS011;75307;53.836;10.476;2024-03-02T02:45:55;32.00;;;13.45;;
84989;SDS011;75307;53.836;10.476;2024-03-02T02:47:57;31.10;;;13.27;;
84989;SDS011;75307;53.836;10.476;2024-03-02T02:49:58;30.48;;;12.55;;
84989;SDS011;75307;53.836;10.476;2024-03-02T02:52:00;33.70;;;15.65;;
84989;SDS011;75307;53.836;10.476;2024-03-02T02:54:03;32.88;;;14.73;;
84989;SDS011;75307;53.836;10.476;2024-03-02T02:56:05;33.47;;;15.57;;
84989;SDS011;75307;53.836;10.476;2024-03-02T02:58:07;32.38;;;16.88;;
84989;SDS011;75307;53.836;10.476;2024-03-02T03:00:09;32.67;;;15.45;;
84989;SDS011;75307;53.836;10.476;2024-03-02T03:02:14;30.70;;;12.63;;
84989;SDS011;75307;53.836;10.476;2024-03-02T03:04:16;28.42;;;12.55;;
84989;SDS011;75307;53.836;10.476;2024-03-02T03:06:18;29.92;;;13.15;;
84989;SDS011;75307;53.836;10.476;2024-03-02T03:08:19;30.83;;;14.88;;
84989;SDS011;75307;53.836;10.476;2024-03-02T03:12:26;31.33;;;13.60;;
84989;SDS011;75307;53.836;10.476;2024-03-02T03:14:28;33.30;;;13.70;;
84989;SDS011;75307;53.836;10.476;2024-03-02T03:16:29;34.63;;;14.77;;
84989;SDS011;75307;53.836;10.476;2024-03-02T03:18:31;32.47;;;16.00;;
84989;SDS011;75307;53.836;10.476;2024-03-02T03:22:33;28.83;;;13.75;;
84989;SDS011;75307;53.836;10.476;2024-03-02T03:24:36;30.38;;;13.88;;
84989;SDS011;75307;53.836;10.476;2024-03-02T03:26:39;31.92;;;13.68;;
84989;SDS011;75307;53.836;10.476;2024-03-02T03:28:41;41.67;;;15.13;;
84989;SDS011;75307;53.836;10.476;2024-03-02T03:30:42;35.45;;;15.48;;
84989;SDS011;75307;53.836;10.476;2024-03-02T03:32:43;35.25;;;13.45;;
84989;SDS011;75307;53.836;10.476;2024-03-02T03:34:45;34.92;;;14.00;;
84989;SDS011;75307;53.836;10.476;2024-03-02T03:36:48;35.38;;;15.38;;
84989;SDS011;75307;53.836;10.476;2024-03-02T03:38:50;34.45;;;15.90;;
84989;SDS011;75307;53.836;10.476;2024-03-02T03:40:51;38.20;;;15.93;;
84989;SDS011;75307;53.836;10.476;2024-03-02T03:42:54;33.00;;;13.95;;
84989;SDS011;75307;53.836;10.476;2024-03-02T03:44:56;33.92;;;15.13;;
84989;SDS011;75307;53.836;10.476;2024-03-02T03:46:58;34.17;;;15.77;;
84989;SDS011;75307;53.836;10.476;2024-03-02T03:49:01;28.90;;;15.10;;
84989;SDS011;75307;53.836;10.476;2024-03-02T03:51:04;33.15;;;16.33;;
84989;SDS011;75307;53.836;10.476;2024-03-02T03:53:05;33.35;;;14.63;;
84989;SDS011;75307;53.836;10.476;2024-03-02T03:55:07;36.72;;;13.82;;
84989;SDS011;75307;53.836;10.476;2024-03-02T03:57:08;33.80;;;13.65;;
84989;SDS011;75307;53.836;10.476;2024-03-02T03:59:12;38.00;;;14.75;;
84989;SDS011;75307;53.836;10.476;2024-03-02T04:01:13;39.58;;;14.82;;
84989;SDS011;75307;53.836;10.476;2024-03-02T04:03:14;37.25;;;15.35;;
84989;SDS011;75307;53.836;10.476;2024-03-02T04:05:16;32.28;;;14.90;;
84989;SDS011;75307;53.836;10.476;2024-03-02T04:07:18;36.22;;;16.67;;
84989;SDS011;75307;53.836;10.476;2024-03-02T04:09:18;36.50;;;14.52;;
84989;SDS011;75307;53.836;10.476;2024-03-02T04:11:20;36.33;;;15.27;;
84989;SDS011;75307;53.836;10.476;2024-03-02T04:13:22;28.75;;;13.35;;
84989;SDS011;75307;53.836;10.476;2024-03-02T04:15:25;34.83;;;15.18;;
84989;SDS011;75307;53.836;10.476;2024-03-02T04:17:27;37.00;;;15.73;;
84989;SDS011;75307;53.836;10.476;2024-03-02T04:19:27;37.72;;;16.65;;
84989;SDS011;75307;53.836;10.476;2024-03-02T04:21:29;33.45;;;15.57;;
84989;SDS011;75307;53.836;10.476;2024-03-02T04:23:31;36.47;;;15.73;;
84989;SDS011;75307;53.836;10.476;2024-03-02T04:25:32;37.33;;;16.52;;
84989;SDS011;75307;53.836;10.476;2024-03-02T04:27:34;33.38;;;14.10;;
84989;SDS011;75307;53.836;10.476;2024-03-02T04:29:36;35.33;;;15.50;;
84989;SDS011;75307;53.836;10.476;2024-03-02T04:31:39;37.33;;;16.25;;
84989;SDS011;75307;53.836;10.476;2024-03-02T04:33:40;35.50;;;15.57;;
84989;SDS011;75307;53.836;10.476;2024-03-02T04:35:42;32.45;;;14.27;;
84989;SDS011;75307;53.836;10.476;2024-03-02T04:37:43;37.47;;;16.52;;
84989;SDS011;75307;53.836;10.476;2024-03-02T04:39:45;36.88;;;14.77;;
84989;SDS011;75307;53.836;10.476;2024-03-02T04:41:46;35.15;;;17.45;;
84989;SDS011;75307;53.836;10.476;2024-03-02T04:43:48;37.85;;;16.65;;
84989;SDS011;75307;53.836;10.476;2024-03-02T04:45:49;43.03;;;17.98;;
84989;SDS011;75307;53.836;10.476;2024-03-02T04:47:52;37.67;;;16.10;;
84989;SDS011;75307;53.836;10.476;2024-03-02T04:49:54;33.28;;;15.65;;
84989;SDS011;75307;53.836;10.476;2024-03-02T04:51:55;37.35;;;16.52;;
84989;SDS011;75307;53.836;10.476;2024-03-02T04:53:57;35.25;;;15.38;;
84989;SDS011;75307;53.836;10.476;2024-03-02T04:55:59;37.20;;;14.75;;
84989;SDS011;75307;53.836;10.476;2024-03-02T04:58:39;37.95;;;15.07;;
84989;SDS011;75307;53.836;10.476;2024-03-02T05:00:40;35.83;;;15.45;;
84989;SDS011;75307;53.836;10.476;2024-03-02T05:02:42;33.90;;;16.98;;
84989;SDS011;75307;53.836;10.476;2024-03-02T05:04:46;34.85;;;15.27;;
84989;SDS011;75307;53.836;10.476;2024-03-02T05:06:48;41.92;;;16.92;;
84989;SDS011;75307;53.836;10.476;2024-03-02T05:08:52;35.38;;;15.50;;
84989;SDS011;75307;53.836;10.476;2024-03-02T05:10:53;34.58;;;15.38;;
84989;SDS011;75307;53.836;10.476;2024-03-02T05:12:55;41.60;;;16.75;;
84989;SDS011;75307;53.836;10.476;2024-03-02T05:14:57;32.85;;;14.27;;
84989;SDS011;75307;53.836;10.476;2024-03-02T05:16:59;37.03;;;16.33;;
84989;SDS011;75307;53.836;10.476;2024-03-02T05:19:00;35.25;;;15.30;;
84989;SDS011;75307;53.836;10.476;2024-03-02T05:21:03;38.65;;;17.98;;
84989;SDS011;75307;53.836;10.476;2024-03-02T05:23:05;33.63;;;15.85;;
84989;SDS011;75307;53.836;10.476;2024-03-02T05:25:07;35.40;;;16.20;;
84989;SDS011;75307;53.836;10.476;2024-03-02T05:27:07;38.95;;;17.80;;
84989;SDS011;75307;53.836;10.476;2024-03-02T05:29:09;37.38;;;15.52;;
84989;SDS011;75307;53.836;10.476;2024-03-02T05:31:11;40.22;;;16.88;;
84989;SDS011;75307;53.836;10.476;2024-03-02T05:33:16;39.03;;;17.50;;
84989;SDS011;75307;53.836;10.476;2024-03-02T05:35:17;39.17;;;15.50;;
84989;SDS011;75307;53.836;10.476;2024-03-02T05:37:20;34.47;;;17.48;;
84989;SDS011;75307;53.836;10.476;2024-03-02T05:39:21;41.72;;;16.95;;
84989;SDS011;75307;53.836;10.476;2024-03-02T05:41:23;35.97;;;17.88;;
84989;SDS011;75307;53.836;10.476;2024-03-02T05:43:24;34.47;;;16.77;;
84989;SDS011;75307;53.836;10.476;2024-03-02T05:45:26;41.92;;;17.75;;
84989;SDS011;75307;53.836;10.476;2024-03-02T05:47:28;40.20;;;17.17;;
84989;SDS011;75307;53.836;10.476;2024-03-02T05:49:29;37.60;;;16.27;;
84989;SDS011;75307;53.836;10.476;2024-03-02T05:51:30;37.75;;;15.18;;
84989;SDS011;75307;53.836;10.476;2024-03-02T05:53:33;38.58;;;17.25;;
84989;SDS011;75307;53.836;10.476;2024-03-02T05:55:38;39.78;;;17.73;;
84989;SDS011;75307;53.836;10.476;2024-03-02T05:57:40;36.13;;;16.25;;
84989;SDS011;75307;53.836;10.476;2024-03-02T05:59:55;36.00;;;16.83;;
84989;SDS011;75307;53.836;10.476;2024-03-02T06:01:57;40.75;;;15.55;;
84989;SDS011;75307;53.836;10.476;2024-03-02T06:03:59;35.08;;;14.98;;
84989;SDS011;75307;53.836;10.476;2024-03-02T06:06:01;35.10;;;16.95;;
84989;SDS011;75307;53.836;10.476;2024-03-02T06:08:03;38.67;;;17.42;;
84989;SDS011;75307;53.836;10.476;2024-03-02T06:10:07;36.80;;;16.00;;
84989;SDS011;75307;53.836;10.476;2024-03-02T06:12:09;40.88;;;17.42;;
84989;SDS011;75307;53.836;10.476;2024-03-02T06:14:11;38.33;;;18.35;;
84989;SDS011;75307;53.836;10.476;2024-03-02T06:16:13;38.67;;;17.30;;
84989;SDS011;75307;53.836;10.476;2024-03-02T06:18:15;38.90;;;18.77;;
84989;SDS011;75307;53.836;10.476;2024-03-02T06:20:16;36.70;;;16.35;;
84989;SDS011;75307;53.836;10.476;2024-03-02T06:22:18;37.20;;;18.60;;
84989;SDS011;75307;53.836;10.476;2024-03-02T06:24:21;34.92;;;17.48;;
84989;SDS011;75307;53.836;10.476;2024-03-02T06:26:24;35.30;;;16.80;;
84989;SDS011;75307;53.836;10.476;2024-03-02T06:28:26;38.75;;;17.80;;
84989;SDS011;75307;53.836;10.476;2024-03-02T06:30:27;39.55;;;15.95;;
84989;SDS011;75307;53.836;10.476;2024-03-02T06:32:28;37.55;;;16.52;;
84989;SDS011;75307;53.836;10.476;2024-03-02T06:34:30;37.42;;;15.35;;
84989;SDS011;75307;53.836;10.476;2024-03-02T06:36:32;40.40;;;18.60;;
84989;SDS011;75307;53.836;10.476;2024-03-02T06:38:33;38.50;;;16.73;;
84989;SDS011;75307;53.836;10.476;2024-03-02T06:40:35;38.10;;;17.52;;
84989;SDS011;75307;53.836;10.476;2024-03-02T06:42:39;36.03;;;15.45;;
84989;SDS011;75307;53.836;10.476;2024-03-02T06:44:40;43.08;;;16.27;;
84989;SDS011;75307;53.836;10.476;2024-03-02T06:46:42;35.17;;;16.90;;
84989;SDS011;75307;53.836;10.476;2024-03-02T06:48:43;36.28;;;17.20;;
84989;SDS011;75307;53.836;10.476;2024-03-02T06:50:44;40.83;;;15.15;;
84989;SDS011;75307;53.836;10.476;2024-03-02T06:52:45;38.20;;;17.23;;
84989;SDS011;75307;53.836;10.476;2024-03-02T06:54:47;39.65;;;15.65;;
84989;SDS011;75307;53.836;10.476;2024-03-02T06:56:47;37.90;;;17.50;;
84989;SDS011;75307;53.836;10.476;2024-03-02T06:58:50;39.35;;;15.88;;
84989;SDS011;75307;53.836;10.476;2024-03-02T07:00:52;42.45;;;16.98;;
84989;SDS011;75307;53.836;10.476;2024-03-02T07:02:54;35.72;;;15.20;;
84989;SDS011;75307;53.836;10.476;2024-03-02T07:04:56;38.83;;;15.38;;
84989;SDS011;75307;53.836;10.476;2024-03-02T07:06:57;38.50;;;16.30;;
84989;SDS011;75307;53.836;10.476;2024-03-02T07:08:58;38.95;;;17.45;;
84989;SDS011;75307;53.836;10.476;2024-03-02T07:11:00;38.50;;;16.17;;
84989;SDS011;75307;53.836;10.476;2024-03-02T07:13:01;40.65;;;18.77;;
84989;SDS011;75307;53.836;10.476;2024-03-02T07:15:05;34.25;;;14.85;;
84989;SDS011;75307;53.836;10.476;2024-03-02T07:17:37;35.92;;;16.48;;
84989;SDS011;75307;53.836;10.476;2024-03-02T07:19:38;37.35;;;16.77;;
84989;SDS011;75307;53.836;10.476;2024-03-02T07:21:40;40.95;;;16.50;;
84989;SDS011;75307;53.836;10.476;2024-03-02T07:23:42;43.40;;;17.40;;
84989;SDS011;75307;53.836;10.476;2024-03-02T07:25:42;38.25;;;17.73;;
84989;SDS011;75307;53.836;10.476;2024-03-02T07:27:44;40.45;;;16.25;;
84989;SDS011;75307;53.836;10.476;2024-03-02T07:29:46;38.63;;;16.50;;
84989;SDS011;75307;53.836;10.476;2024-03-02T07:31:49;36.25;;;17.88;;
84989;SDS011;75307;53.836;10.476;2024-03-02T07:33:51;40.58;;;17.58;;
84989;SDS011;75307;53.836;10.476;2024-03-02T07:35:53;39.42;;;16.88;;
84989;SDS011;75307;53.836;10.476;2024-03-02T07:37:55;43.40;;;17.88;;
84989;SDS011;75307;53.836;10.476;2024-03-02T07:39:57;36.47;;;16.10;;
84989;SDS011;75307;53.836;10.476;2024-03-02T07:41:58;36.13;;;16.92;;
84989;SDS011;75307;53.836;10.476;2024-03-02T07:44:00;39.03;;;16.48;;
84989;SDS011;75307;53.836;10.476;2024-03-02T07:46:02;44.53;;;16.52;;
84989;SDS011;75307;53.836;10.476;2024-03-02T07:48:06;42.28;;;16.63;;
84989;SDS011;75307;53.836;10.476;2024-03-02T07:50:08;37.25;;;15.57;;
84989;SDS011;75307;53.836;10.476;2024-03-02T07:52:10;38.38;;;16.08;;
84989;SDS011;75307;53.836;10.476;2024-03-02T07:54:12;33.63;;;16.77;;
84989;SDS011;75307;53.836;10.476;2024-03-02T07:56:13;36.40;;;17.58;;
84989;SDS011;75307;53.836;10.476;2024-03-02T07:58:16;36.15;;;17.08;;
84989;SDS011;75307;53.836;10.476;2024-03-02T08:00:19;34.67;;;16.77;;
84989;SDS011;75307;53.836;10.476;2024-03-02T08:02:21;38.83;;;16.75;;
84989;SDS011;75307;53.836;10.476;2024-03-02T08:04:24;37.90;;;15.88;;
84989;SDS011;75307;53.836;10.476;2024-03-02T08:06:25;39.63;;;16.77;;
84989;SDS011;75307;53.836;10.476;2024-03-02T08:08:28;35.67;;;15.43;;
84989;SDS011;75307;53.836;10.476;2024-03-02T08:12:30;38.08;;;14.40;;
84989;SDS011;75307;53.836;10.476;2024-03-02T08:14:31;39.08;;;16.50;;
84989;SDS011;75307;53.836;10.476;2024-03-02T08:18:34;30.33;;;14.95;;
84989;SDS011;75307;53.836;10.476;2024-03-02T08:20:37;30.10;;;13.82;;
84989;SDS011;75307;53.836;10.476;2024-03-02T08:22:39;37.03;;;15.07;;
84989;SDS011;75307;53.836;10.476;2024-03-02T08:24:41;30.98;;;13.60;;
84989;SDS011;75307;53.836;10.476;2024-03-02T08:28:43;33.03;;;13.90;;
84989;SDS011;75307;53.836;10.476;2024-03-02T08:30:45;29.45;;;14.18;;
84989;SDS011;75307;53.836;10.476;2024-03-02T08:32:47;32.70;;;13.93;;
84989;SDS011;75307;53.836;10.476;2024-03-02T08:34:48;29.75;;;14.18;;
84989;SDS011;75307;53.836;10.476;2024-03-02T08:36:51;31.88;;;13.90;;
84989;SDS011;75307;53.836;10.476;2024-03-02T08:38:53;30.20;;;13.95;;
84989;SDS011;75307;53.836;10.476;2024-03-02T08:40:56;27.38;;;12.88;;
84989;SDS011;75307;53.836;10.476;2024-03-02T08:42:57;28.30;;;13.30;;
84989;SDS011;75307;53.836;10.476;2024-03-02T08:44:59;29.70;;;14.60;;
84989;SDS011;75307;53.836;10.476;2024-03-02T08:47:01;31.25;;;14.48;;
84989;SDS011;75307;53.836;10.476;2024-03-02T08:49:04;30.05;;;14.57;;
84989;SDS011;75307;53.836;10.476;2024-03-02T08:51:05;34.25;;;15.52;;
84989;SDS011;75307;53.836;10.476;2024-03-02T08:53:09;30.65;;;15.05;;
84989;SDS011;75307;53.836;10.476;2024-03-02T08:55:11;30.42;;;15.82;;
84989;SDS011;75307;53.836;10.476;2024-03-02T08:57:13;30.98;;;14.18;;
84989;SDS011;75307;53.836;10.476;2024-03-02T08:59:14;35.70;;;14.10;;
84989;SDS011;75307;53.836;10.476;2024-03-02T09:01:16;29.25;;;12.88;;
84989;SDS011;75307;53.836;10.476;2024-03-02T09:03:19;27.42;;;12.95;;
84989;SDS011;75307;53.836;10.476;2024-03-02T09:05:21;33.25;;;15.27;;
84989;SDS011;75307;53.836;10.476;2024-03-02T09:07:22;28.45;;;15.32;;
84989;SDS011;75307;53.836;10.476;2024-03-02T09:09:25;30.02;;;13.55;;
84989;SDS011;75307;53.836;10.476;2024-03-02T09:11:27;32.38;;;13.52;;
84989;SDS011;75307;53.836;10.476;2024-03-02T09:13:29;39.20;;;21.83;;
84989;SDS011;75307;53.836;10.476;2024-03-02T09:15:30;31.55;;;15.30;;
84989;SDS011;75307;53.836;10.476;2024-03-02T09:17:32;29.08;;;13.88;;
84989;SDS011;75307;53.836;10.476;2024-03-02T09:19:34;29.05;;;14.40;;
84989;SDS011;75307;53.836;10.476;2024-03-02T09:21:36;27.70;;;14.13;;
84989;SDS011;75307;53.836;10.476;2024-03-02T09:23:38;28.55;;;13.55;;
84989;SDS011;75307;53.836;10.476;2024-03-02T09:25:41;27.60;;;14.05;;
84989;SDS011;75307;53.836;10.476;2024-03-02T09:27:43;26.67;;;12.32;;
84989;SDS011;75307;53.836;10.476;2024-03-02T09:29:45;23.13;;;12.95;;
84989;SDS011;75307;53.836;10.476;2024-03-02T09:31:46;26.02;;;12.98;;
84989;SDS011;75307;53.836;10.476;2024-03-02T09:33:49;25.40;;;13.48;;
84989;SDS011;75307;53.836;10.476;2024-03-02T09:37:52;28.55;;;11.98;;
84989;SDS011;75307;53.836;10.476;2024-03-02T09:39:54;24.85;;;12.68;;
84989;SDS011;75307;53.836;10.476;2024-03-02T09:41:57;23.60;;;12.30;;
84989;SDS011;75307;53.836;10.476;2024-03-02T09:44:00;22.48;;;11.63;;
84989;SDS011;75307;53.836;10.476;2024-03-02T09:46:01;25.52;;;12.20;;
84989;SDS011;75307;53.836;10.476;2024-03-02T09:48:04;22.00;;;11.70;;
84989;SDS011;75307;53.836;10.476;2024-03-02T09:50:07;23.90;;;12.18;;
84989;SDS011;75307;53.836;10.476;2024-03-02T09:52:08;25.05;;;10.65;;
84989;SDS011;75307;53.836;10.476;2024-03-02T09:54:11;24.05;;;11.60;;
84989;SDS011;75307;53.836;10.476;2024-03-02T09:56:13;25.17;;;10.68;;
84989;SDS011;75307;53.836;10.476;2024-03-02T09:58:17;22.10;;;10.90;;
84989;SDS011;75307;53.836;10.476;2024-03-02T10:00:18;24.98;;;11.13;;
84989;SDS011;75307;53.836;10.476;2024-03-02T10:02:20;21.60;;;9.88;;
84989;SDS011;75307;53.836;10.476;2024-03-02T10:04:21;23.63;;;11.73;;
84989;SDS011;75307;53.836;10.476;2024-03-02T10:06:23;20.90;;;10.00;;
84989;SDS011;75307;53.836;10.476;2024-03-02T10:08:26;20.60;;;11.50;;
84989;SDS011;75307;53.836;10.476;2024-03-02T10:10:44;20.30;;;11.52;;
84989;SDS011;75307;53.836;10.476;2024-03-02T10:12:45;22.33;;;12.02;;
84989;SDS011;75307;53.836;10.476;2024-03-02T10:14:49;22.00;;;11.15;;
84989;SDS011;75307;53.836;10.476;2024-03-02T10:16:52;19.73;;;10.65;;
84989;SDS011;75307;53.836;10.476;2024-03-02T10:18:54;23.50;;;11.15;;
84989;SDS011;75307;53.836;10.476;2024-03-02T10:20:58;19.67;;;12.13;;
84989;SDS011;75307;53.836;10.476;2024-03-02T10:23:15;22.60;;;11.73;;
84989;SDS011;75307;53.836;10.476;2024-03-02T10:25:30;22.08;;;9.80;;
84989;SDS011;75307;53.836;10.476;2024-03-02T10:27:32;18.98;;;10.10;;
84989;SDS011;75307;53.836;10.476;2024-03-02T10:29:36;20.05;;;10.75;;
84989;SDS011;75307;53.836;10.476;2024-03-02T10:31:41;20.77;;;10.60;;
84989;SDS011;75307;53.836;10.476;2024-03-02T10:33:45;19.40;;;9.50;;
84989;SDS011;75307;53.836;10.476;2024-03-02T10:35:47;20.92;;;10.15;;
84989;SDS011;75307;53.836;10.476;2024-03-02T10:37:51;14.63;;;8.52;;
84989;SDS011;75307;53.836;10.476;2024-03-02T10:39:53;16.80;;;9.35;;
84989;SDS011;75307;53.836;10.476;2024-03-02T10:41:55;18.92;;;10.55;;
84989;SDS011;75307;53.836;10.476;2024-03-02T10:43:56;17.70;;;8.90;;
84989;SDS011;75307;53.836;10.476;2024-03-02T10:46:00;18.65;;;10.48;;
84989;SDS011;75307;53.836;10.476;2024-03-02T10:48:04;18.20;;;10.18;;
84989;SDS011;75307;53.836;10.476;2024-03-02T10:50:07;16.98;;;10.13;;
84989;SDS011;75307;53.836;10.476;2024-03-02T10:52:09;16.20;;;9.50;;
84989;SDS011;75307;53.836;10.476;2024-03-02T10:54:11;18.00;;;10.00;;
84989;SDS011;75307;53.836;10.476;2024-03-02T10:56:13;17.77;;;9.48;;
84989;SDS011;75307;53.836;10.476;2024-03-02T10:58:22;17.88;;;9.02;;
84989;SDS011;75307;53.836;10.476;2024-03-02T11:00:28;19.65;;;10.13;;
84989;SDS011;75307;53.836;10.476;2024-03-02T11:02:34;18.20;;;10.18;;
84989;SDS011;75307;53.836;10.476;2024-03-02T11:04:40;16.90;;;9.55;;
84989;SDS011;75307;53.836;10.476;2024-03-02T11:06:43;17.10;;;9.98;;
84989;SDS011;75307;53.836;10.476;2024-03-02T11:08:48;18.27;;;8.55;;
84989;SDS011;75307;53.836;10.476;2024-03-02T11:10:57;16.20;;;9.63;;
84989;SDS011;75307;53.836;10.476;2024-03-02T11:13:00;17.65;;;9.00;;
84989;SDS011;75307;53.836;10.476;2024-03-02T11:15:05;16.13;;;8.40;;
84989;SDS011;75307;53.836;10.476;2024-03-02T11:19:15;16.90;;;9.23;;
84989;SDS011;75307;53.836;10.476;2024-03-02T11:21:19;16.30;;;8.95;;
84989;SDS011;75307;53.836;10.476;2024-03-02T11:23:31;14.90;;;7.55;;
84989;SDS011;75307;53.836;10.476;2024-03-02T11:25:34;15.45;;;8.13;;
84989;SDS011;75307;53.836;10.476;2024-03-02T11:30:04;13.27;;;7.88;;
84989;SDS011;75307;53.836;10.476;2024-03-02T11:32:12;14.80;;;8.32;;
84989;SDS011;75307;53.836;10.476;2024-03-02T11:34:17;14.40;;;7.75;;
84989;SDS011;75307;53.836;10.476;2024-03-02T11:36:20;13.90;;;7.57;;
84989;SDS011;75307;53.836;10.476;2024-03-02T11:38:22;13.45;;;7.85;;
84989;SDS011;75307;53.836;10.476;2024-03-02T11:40:25;13.90;;;7.90;;
84989;SDS011;75307;53.836;10.476;2024-03-02T11:42:27;14.32;;;8.50;;
84989;SDS011;75307;53.836;10.476;2024-03-02T11:44:28;16.60;;;8.57;;
84989;SDS011;75307;53.836;10.476;2024-03-02T11:46:29;15.50;;;8.10;;
84989;SDS011;75307;53.836;10.476;2024-03-02T11:48:31;15.73;;;8.68;;
84989;SDS011;75307;53.836;10.476;2024-03-02T11:50:33;16.17;;;9.73;;
84989;SDS011;75307;53.836;10.476;2024-03-02T11:52:39;15.93;;;9.07;;
84989;SDS011;75307;53.836;10.476;2024-03-02T11:54:43;14.85;;;8.13;;
84989;SDS011;75307;53.836;10.476;2024-03-02T11:56:48;15.52;;;8.77;;
84989;SDS011;75307;53.836;10.476;2024-03-02T11:58:49;15.25;;;7.70;;
84989;SDS011;75307;53.836;10.476;2024-03-02T12:00:55;15.88;;;8.35;;
84989;SDS011;75307;53.836;10.476;2024-03-02T12:02:59;13.32;;;7.28;;
84989;SDS011;75307;53.836;10.476;2024-03-02T12:05:02;17.70;;;8.52;;
84989;SDS011;75307;53.836;10.476;2024-03-02T12:07:05;14.10;;;8.50;;
84989;SDS011;75307;53.836;10.476;2024-03-02T12:09:08;14.77;;;8.63;;
84989;SDS011;75307;53.836;10.476;2024-03-02T12:11:13;15.05;;;8.50;;
84989;SDS011;75307;53.836;10.476;2024-03-02T12:13:16;13.93;;;8.60;;
84989;SDS011;75307;53.836;10.476;2024-03-02T12:15:21;16.02;;;8.68;;
84989;SDS011;75307;53.836;10.476;2024-03-02T12:17:24;15.63;;;7.68;;
84989;SDS011;75307;53.836;10.476;2024-03-02T12:19:26;12.23;;;6.78;;
84989;SDS011;75307;53.836;10.476;2024-03-02T12:21:29;12.77;;;7.28;;